createdAt,value
2023-04-13T00:00:42.793Z,17.90
2023-04-13T00:03:12.623Z,17.90
2023-04-13T00:05:39.868Z,18.00
2023-04-13T00:08:06.919Z,18.00
2023-04-13T00:10:37.148Z,18.10
2023-04-13T00:13:05.455Z,18.10
2023-04-13T00:15:34.868Z,18.10
2023-04-13T00:18:01.939Z,18.10
2023-04-13T00:20:29.236Z,18.10
2023-04-13T00:22:56.361Z,18.20
2023-04-13T00:25:23.846Z,18.20
2023-04-13T00:27:53.077Z,18.10
2023-04-13T00:30:20.357Z,18.10
2023-04-13T00:32:47.511Z,18.10
2023-04-13T00:35:19.361Z,18.10
2023-04-13T00:37:49.169Z,18.00
2023-04-13T00:40:16.786Z,18.00
2023-04-13T00:42:47.380Z,18.00
2023-04-13T00:45:14.609Z,18.00
2023-04-13T00:47:43.268Z,18.00
2023-04-13T00:50:10.302Z,18.00
2023-04-13T00:52:40.290Z,18.00
2023-04-13T00:55:07.439Z,18.00
2023-04-13T00:57:34.915Z,18.00
2023-04-13T01:00:06.597Z,18.00
2023-04-13T01:02:34.456Z,18.00
2023-04-13T01:05:02.371Z,17.90
2023-04-13T01:07:53.974Z,18.00
2023-04-13T01:10:27.769Z,18.00
2023-04-13T01:13:06.945Z,17.90
2023-04-13T01:15:37.083Z,17.90
2023-04-13T01:18:09.343Z,17.90
2023-04-13T01:20:41.278Z,17.90
2023-04-13T01:23:09.702Z,17.90
2023-04-13T01:25:36.941Z,17.90
2023-04-13T01:28:12.705Z,18.10
2023-04-13T01:30:40.304Z,18.00
2023-04-13T01:33:07.347Z,17.90
2023-04-13T01:35:34.435Z,17.90
2023-04-13T01:38:01.313Z,18.10
2023-04-13T01:40:29.512Z,18.00
2023-04-13T01:42:57.588Z,17.90
2023-04-13T01:45:26.176Z,17.90
2023-04-13T01:47:57.615Z,17.90
2023-04-13T01:50:28.432Z,17.90
2023-04-13T01:52:57.975Z,17.90
2023-04-13T01:55:25.200Z,17.90
2023-04-13T01:57:54.356Z,17.90
2023-04-13T02:00:21.238Z,17.90
2023-04-13T02:02:49.292Z,18.00
2023-04-13T02:05:16.446Z,18.10
2023-04-13T02:07:44.906Z,18.10
2023-04-13T02:10:12.119Z,18.10
2023-04-13T02:12:38.882Z,18.20
2023-04-13T02:15:06.739Z,18.20
2023-04-13T02:17:33.625Z,18.20
2023-04-13T02:20:00.484Z,18.20
2023-04-13T02:22:27.619Z,18.20
2023-04-13T02:24:55.327Z,18.20
2023-04-13T02:27:22.806Z,18.20
2023-04-13T02:29:51.611Z,18.20
2023-04-13T02:32:18.758Z,18.10
2023-04-13T02:34:45.787Z,18.10
2023-04-13T02:37:12.492Z,18.10
2023-04-13T02:39:39.258Z,18.10
2023-04-13T02:42:06.020Z,18.10
2023-04-13T02:44:34.218Z,18.00
2023-04-13T02:47:01.452Z,18.00
2023-04-13T02:49:28.223Z,18.00
2023-04-13T02:51:55.096Z,18.00
2023-04-13T02:54:21.984Z,18.10
2023-04-13T02:56:49.233Z,18.00
2023-04-13T02:59:16.659Z,18.00
2023-04-13T03:01:46.085Z,18.00
2023-04-13T03:04:13.017Z,18.00
2023-04-13T03:06:39.741Z,18.00
2023-04-13T03:09:06.503Z,18.00
2023-04-13T03:11:33.501Z,18.00
2023-04-13T03:14:01.647Z,18.00
2023-04-13T03:16:28.753Z,18.00
2023-04-13T03:18:56.305Z,18.00
2023-04-13T03:21:23.087Z,18.00
2023-04-13T03:23:49.948Z,18.00
2023-04-13T03:26:16.833Z,18.00
2023-04-13T03:28:43.593Z,18.00
2023-04-13T03:31:10.417Z,18.00
2023-04-13T03:33:37.251Z,18.10
2023-04-13T03:36:04.235Z,18.00
2023-04-13T03:38:30.996Z,18.00
2023-04-13T03:40:57.759Z,18.00
2023-04-13T03:43:24.520Z,17.90
2023-04-13T03:45:51.348Z,18.00
2023-04-13T03:48:18.165Z,18.10
2023-04-13T03:50:45.044Z,17.90
2023-04-13T03:53:11.805Z,17.90
2023-04-13T03:55:38.571Z,18.10
2023-04-13T03:58:05.450Z,18.00
2023-04-13T04:00:32.211Z,18.00
2023-04-13T04:02:59.120Z,18.00
2023-04-13T04:05:25.967Z,18.10
2023-04-13T04:07:52.872Z,18.30
2023-04-13T04:10:19.858Z,18.10
2023-04-13T04:12:46.733Z,18.20
2023-04-13T04:15:13.490Z,18.20
2023-04-13T04:17:40.528Z,18.10
2023-04-13T04:20:07.884Z,18.10
2023-04-13T04:22:35.210Z,18.20
2023-04-13T04:25:02.147Z,18.10
2023-04-13T04:27:29.094Z,18.10
2023-04-13T04:29:59.454Z,18.10
2023-04-13T04:32:26.363Z,18.00
2023-04-13T04:34:53.215Z,18.10
2023-04-13T04:37:23.359Z,18.00
2023-04-13T04:39:50.222Z,18.00
2023-04-13T04:42:18.933Z,18.00
2023-04-13T04:44:49.869Z,18.00
2023-04-13T04:47:17.484Z,18.00
2023-04-13T04:49:44.349Z,18.00
2023-04-13T04:52:12.695Z,18.00
2023-04-13T04:54:39.689Z,18.00
2023-04-13T04:57:10.739Z,18.30
2023-04-13T04:59:37.751Z,17.90
2023-04-13T05:02:04.678Z,18.00
2023-04-13T05:04:31.629Z,17.90
2023-04-13T05:06:58.403Z,17.90
2023-04-13T05:09:25.298Z,17.90
2023-04-13T05:11:52.044Z,17.90
2023-04-13T05:14:18.798Z,17.90
2023-04-13T05:16:45.573Z,17.90
2023-04-13T05:19:13.171Z,17.90
2023-04-13T05:21:43.041Z,17.90
2023-04-13T05:24:11.493Z,18.00
2023-04-13T05:26:38.646Z,18.00
2023-04-13T05:29:06.921Z,17.90
2023-04-13T05:31:33.771Z,17.90
2023-04-13T05:34:01.720Z,17.90
2023-04-13T05:36:32.367Z,17.90
2023-04-13T05:38:59.657Z,17.80
2023-04-13T05:41:26.616Z,17.90
2023-04-13T05:43:53.500Z,17.90
2023-04-13T05:46:21.169Z,18.00
2023-04-13T05:48:47.978Z,17.90
2023-04-13T05:51:15.690Z,18.00
2023-04-13T05:53:42.456Z,18.00
2023-04-13T05:56:09.333Z,18.10
2023-04-13T05:58:36.212Z,18.10
2023-04-13T06:01:04.068Z,18.20
2023-04-13T06:03:30.941Z,18.20
2023-04-13T06:05:57.941Z,18.20
2023-04-13T06:08:32.437Z,18.20
2023-04-13T06:10:59.616Z,18.20
2023-04-13T06:13:26.398Z,18.20
2023-04-13T06:15:53.383Z,18.20
2023-04-13T06:18:20.142Z,18.10
2023-04-13T06:20:46.903Z,18.10
2023-04-13T06:23:13.781Z,18.00
2023-04-13T06:25:40.662Z,18.00
2023-04-13T06:28:07.555Z,18.10
2023-04-13T06:30:34.609Z,18.00
2023-04-13T06:33:02.066Z,18.00
2023-04-13T06:35:30.583Z,18.00
2023-04-13T06:38:00.358Z,18.00
2023-04-13T06:40:28.073Z,18.00
2023-04-13T06:42:54.948Z,17.90
2023-04-13T06:45:21.951Z,17.80
2023-04-13T06:47:48.655Z,18.00
2023-04-13T06:50:15.882Z,17.90
2023-04-13T06:52:43.560Z,17.80
2023-04-13T06:55:10.465Z,17.90
2023-04-13T06:57:37.324Z,17.90
2023-04-13T07:00:12.610Z,18.00
2023-04-13T07:02:49.109Z,18.10
2023-04-13T07:05:16.618Z,18.10
2023-04-13T07:07:43.334Z,18.20
2023-04-13T07:10:10.706Z,18.10
2023-04-13T07:12:37.563Z,18.20
2023-04-13T07:15:04.585Z,18.20
2023-04-13T07:17:31.516Z,18.20
2023-04-13T07:19:58.327Z,18.20
2023-04-13T07:22:25.140Z,18.20
2023-04-13T07:24:51.971Z,18.10
2023-04-13T07:27:18.860Z,18.10
2023-04-13T07:29:45.981Z,18.10
2023-04-13T07:32:13.462Z,18.10
2023-04-13T07:34:40.332Z,18.10
2023-04-13T07:37:07.095Z,18.00
2023-04-13T07:39:34.350Z,18.10
2023-04-13T07:42:02.064Z,18.10
2023-04-13T07:44:28.939Z,18.10
2023-04-13T07:46:56.753Z,18.10
2023-04-13T07:49:23.553Z,18.00
2023-04-13T07:51:52.462Z,18.00
2023-04-13T07:54:19.218Z,18.00
2023-04-13T07:56:46.103Z,18.00
2023-04-13T07:59:14.062Z,18.00
2023-04-13T08:01:40.990Z,17.90
2023-04-13T08:04:08.065Z,18.00
2023-04-13T08:06:35.190Z,18.00
2023-04-13T08:09:02.069Z,18.00
2023-04-13T08:11:28.824Z,18.00
2023-04-13T08:13:56.428Z,18.00
2023-04-13T08:16:23.348Z,18.00
2023-04-13T08:18:50.788Z,18.00
2023-04-13T08:21:17.791Z,18.00
2023-04-13T08:23:44.683Z,18.00
2023-04-13T08:26:18.961Z,17.80
2023-04-13T08:28:47.552Z,18.00
2023-04-13T08:31:14.791Z,18.00
2023-04-13T08:33:41.677Z,18.00
2023-04-13T08:36:08.685Z,18.00
2023-04-13T08:38:36.653Z,18.00
2023-04-13T08:41:03.892Z,18.00
2023-04-13T08:43:32.921Z,18.00
2023-04-13T08:45:59.942Z,18.20
2023-04-13T08:48:29.052Z,18.30
2023-04-13T08:50:59.824Z,18.20
2023-04-13T08:53:27.161Z,18.30
2023-04-13T08:55:54.760Z,18.40
2023-04-13T08:58:23.578Z,18.30
2023-04-13T09:00:51.107Z,18.30
2023-04-13T09:03:21.045Z,18.30
2023-04-13T09:05:49.848Z,18.30
2023-04-13T09:08:17.118Z,18.00
2023-04-13T09:10:43.980Z,18.20
2023-04-13T09:13:10.726Z,18.20
2023-04-13T09:15:37.845Z,18.20
2023-04-13T09:18:10.791Z,18.20
2023-04-13T09:20:38.001Z,18.20
2023-04-13T09:23:17.222Z,18.20
2023-04-13T09:25:45.475Z,18.20
2023-04-13T09:28:19.351Z,18.20
2023-04-13T09:30:46.554Z,18.20
2023-04-13T09:33:14.218Z,18.20
2023-04-13T09:35:41.097Z,18.10
2023-04-13T09:38:08.949Z,18.20
2023-04-13T09:40:38.948Z,18.10
2023-04-13T09:43:07.889Z,18.10
2023-04-13T09:45:35.842Z,18.10
2023-04-13T09:48:06.495Z,18.10
2023-04-13T09:50:36.664Z,18.10
2023-04-13T09:53:07.030Z,18.10
2023-04-13T09:55:34.869Z,18.20
2023-04-13T10:00:31.514Z,18.30
2023-04-13T10:03:01.754Z,18.30
2023-04-13T10:05:30.026Z,18.80
2023-04-13T10:07:57.078Z,18.50
2023-04-13T10:10:26.592Z,18.50
2023-04-13T10:12:55.296Z,18.50
2023-04-13T10:15:30.912Z,18.50
2023-04-13T10:18:13.684Z,18.40
2023-04-13T10:20:40.883Z,18.40
2023-04-13T10:23:07.881Z,18.40
2023-04-13T10:25:38.356Z,18.40
2023-04-13T10:28:06.799Z,18.40
2023-04-13T10:30:33.832Z,18.30
2023-04-13T10:33:06.060Z,18.30
2023-04-13T10:35:42.921Z,18.30
2023-04-13T10:38:10.869Z,18.20
2023-04-13T10:40:47.480Z,18.20
2023-04-13T10:43:26.613Z,18.20
2023-04-13T10:46:08.248Z,18.20
2023-04-13T10:48:35.213Z,18.20
2023-04-13T10:51:02.168Z,18.50
2023-04-13T10:53:31.054Z,18.20
2023-04-13T10:55:58.044Z,18.20
2023-04-13T10:58:25.411Z,18.20
2023-04-13T11:00:52.529Z,18.40
2023-04-13T11:03:19.570Z,18.20
2023-04-13T11:05:47.517Z,18.20
2023-04-13T11:08:19.361Z,18.20
2023-04-13T11:10:53.525Z,18.20
2023-04-13T11:13:20.857Z,18.10
2023-04-13T11:15:48.217Z,18.20
2023-04-13T11:18:23.988Z,18.20
2023-04-13T11:20:51.221Z,18.20
2023-04-13T11:23:18.941Z,18.20
2023-04-13T11:25:55.182Z,18.20
2023-04-13T11:28:26.290Z,18.20
2023-04-13T11:30:56.655Z,18.20
2023-04-13T11:33:27.101Z,18.20
2023-04-13T11:35:55.065Z,18.20
2023-04-13T11:38:22.097Z,18.10
2023-04-13T11:40:49.803Z,18.20
2023-04-13T11:43:17.268Z,18.10
2023-04-13T11:45:44.405Z,18.10
2023-04-13T11:48:11.291Z,18.10
2023-04-13T11:50:38.150Z,18.10
2023-04-13T11:53:08.271Z,18.20
2023-04-13T11:55:52.076Z,18.20
2023-04-13T11:58:21.373Z,18.30
2023-04-13T12:00:48.850Z,18.40
2023-04-13T12:03:34.450Z,18.50
2023-04-13T12:06:03.706Z,18.50
2023-04-13T12:08:32.442Z,18.50
2023-04-13T12:11:35.527Z,18.50
2023-04-13T12:14:05.657Z,18.80
2023-04-13T12:17:03.203Z,18.50
2023-04-13T12:19:28.135Z,18.50
2023-04-13T12:21:57.589Z,18.40
2023-04-13T12:24:32.915Z,18.40
2023-04-13T12:29:39.466Z,18.40
2023-04-13T12:32:15.149Z,18.30
2023-04-13T12:34:43.048Z,18.40
2023-04-13T12:37:12.611Z,18.40
2023-04-13T12:39:39.474Z,18.30
2023-04-13T12:42:06.493Z,18.30
2023-04-13T12:44:34.391Z,18.30
2023-04-13T12:47:01.987Z,18.30
2023-04-13T12:49:29.060Z,18.30
2023-04-13T12:51:56.058Z,18.30
2023-04-13T12:54:22.826Z,18.30
2023-04-13T12:56:49.580Z,18.30
2023-04-13T12:59:16.944Z,18.30
2023-04-13T13:01:43.750Z,18.30
2023-04-13T13:04:10.630Z,18.30
2023-04-13T13:06:38.154Z,18.30
2023-04-13T13:09:05.942Z,18.20
2023-04-13T13:11:32.792Z,18.20
2023-04-13T13:13:59.662Z,18.30
2023-04-13T13:16:26.730Z,18.20
2023-04-13T13:18:53.701Z,18.30
2023-04-13T13:21:21.292Z,18.30
2023-04-13T13:23:48.231Z,18.30
2023-04-13T13:28:45.171Z,18.30
2023-04-13T13:31:12.894Z,18.30
2023-04-13T13:33:39.752Z,18.20
2023-04-13T13:36:07.751Z,18.30
2023-04-13T13:38:36.394Z,18.20
2023-04-13T13:41:03.517Z,18.20
2023-04-13T13:43:30.395Z,18.20
2023-04-13T13:45:57.305Z,18.20
2023-04-13T13:48:24.280Z,18.30
2023-04-13T13:50:51.158Z,18.20
2023-04-13T13:53:18.158Z,18.20
2023-04-13T13:55:45.303Z,18.20
2023-04-13T13:58:12.165Z,18.30
2023-04-13T14:00:39.918Z,18.40
2023-04-13T14:03:07.064Z,18.40
2023-04-13T14:05:34.012Z,18.50
2023-04-13T14:08:01.134Z,18.50
2023-04-13T14:10:28.013Z,18.50
2023-04-13T14:12:55.885Z,18.60
2023-04-13T14:15:22.727Z,18.50
2023-04-13T14:18:02.442Z,18.50
2023-04-13T14:20:38.870Z,18.50
2023-04-13T14:23:06.170Z,18.50
2023-04-13T14:25:32.939Z,18.50
2023-04-13T14:27:59.699Z,18.80
2023-04-13T14:30:27.828Z,18.50
2023-04-13T14:32:55.215Z,18.40
2023-04-13T14:35:22.850Z,18.40
2023-04-13T14:37:49.508Z,18.40
2023-04-13T14:40:17.259Z,18.40
2023-04-13T14:42:44.384Z,18.60
2023-04-13T14:45:12.487Z,18.30
2023-04-13T14:47:40.142Z,18.30
2023-04-13T14:50:08.415Z,18.30
2023-04-13T14:52:35.460Z,18.30
2023-04-13T14:55:02.470Z,18.30
2023-04-13T14:57:29.360Z,18.30
2023-04-13T14:59:56.473Z,18.30
2023-04-13T15:02:23.778Z,18.30
2023-04-13T15:04:50.994Z,18.50
2023-04-13T15:07:19.054Z,18.30
2023-04-13T15:09:45.812Z,18.30
2023-04-13T15:12:13.847Z,18.30
2023-04-13T15:14:41.092Z,18.30
2023-04-13T15:17:08.750Z,18.30
2023-04-13T15:19:35.593Z,18.30
2023-04-13T15:22:02.371Z,18.30
2023-04-13T15:24:29.117Z,18.30
2023-04-13T15:26:56.033Z,18.30
2023-04-13T15:29:23.636Z,18.30
2023-04-13T15:31:51.984Z,18.30
2023-04-13T15:34:18.805Z,18.30
2023-04-13T15:36:45.799Z,18.30
2023-04-13T15:39:12.563Z,18.30
2023-04-13T15:41:40.066Z,18.30
2023-04-13T15:44:06.804Z,18.20
2023-04-13T15:46:33.777Z,18.20
2023-04-13T15:49:00.917Z,18.20
2023-04-13T15:51:28.298Z,18.20
2023-04-13T15:53:55.165Z,18.20
2023-04-13T15:56:22.050Z,18.30
2023-04-13T15:58:49.302Z,18.30
2023-04-13T16:01:16.082Z,18.30
2023-04-13T16:03:43.115Z,18.30
2023-04-13T16:06:10.914Z,18.30
2023-04-13T16:08:38.013Z,18.30
2023-04-13T16:11:05.024Z,18.30
2023-04-13T16:13:47.193Z,18.30
2023-04-13T16:16:15.391Z,18.30
2023-04-13T16:18:42.341Z,18.40
2023-04-13T16:21:11.046Z,18.50
2023-04-13T16:23:38.365Z,18.60
2023-04-13T16:26:05.267Z,18.50
2023-04-13T16:28:32.142Z,18.60
2023-04-13T16:30:59.104Z,18.60
2023-04-13T16:33:26.260Z,18.60
2023-04-13T16:35:53.144Z,18.60
2023-04-13T16:38:20.026Z,18.60
2023-04-13T16:40:47.024Z,18.60
2023-04-13T16:43:13.928Z,18.60
2023-04-13T16:45:40.788Z,18.60
2023-04-13T16:48:07.984Z,18.50
2023-04-13T16:50:34.790Z,18.50
2023-04-13T16:53:01.687Z,18.50
2023-04-13T16:55:28.809Z,18.50
2023-04-13T16:57:55.863Z,18.40
2023-04-13T17:00:23.216Z,18.50
2023-04-13T17:02:50.376Z,18.40
2023-04-13T17:05:17.412Z,18.50
2023-04-13T17:07:44.631Z,18.40
2023-04-13T17:10:12.980Z,18.40
2023-04-13T17:12:39.956Z,18.40
2023-04-13T17:15:07.076Z,18.40
2023-04-13T17:17:34.648Z,18.40
2023-04-13T17:20:01.887Z,18.40
2023-04-13T17:22:28.805Z,18.40
2023-04-13T17:24:55.851Z,18.50
2023-04-13T17:27:22.812Z,18.40
2023-04-13T17:29:49.994Z,18.30
2023-04-13T17:32:16.978Z,18.30
2023-04-13T17:34:44.872Z,18.30
2023-04-13T17:37:11.861Z,18.30
2023-04-13T17:39:42.330Z,18.30
2023-04-13T17:42:09.727Z,18.30
2023-04-13T17:44:38.028Z,18.30
2023-04-13T17:47:04.930Z,18.50
2023-04-13T17:49:31.815Z,18.50
2023-04-13T17:52:01.813Z,18.60
2023-04-13T17:54:28.815Z,18.60
2023-04-13T17:56:55.814Z,18.60
2023-04-13T17:59:22.941Z,18.60
2023-04-13T18:01:53.393Z,18.60
2023-04-13T18:04:20.439Z,18.60
2023-04-13T18:06:47.427Z,18.60
2023-04-13T18:09:14.428Z,18.50
2023-04-13T18:11:41.312Z,18.50
2023-04-13T18:14:09.263Z,18.50
2023-04-13T18:16:36.809Z,18.40
2023-04-13T18:19:04.133Z,18.40
2023-04-13T18:21:32.330Z,18.40
2023-04-13T18:24:02.504Z,18.40
2023-04-13T18:26:30.056Z,18.30
2023-04-13T18:28:57.032Z,18.30
2023-04-13T18:31:23.953Z,18.30
2023-04-13T18:33:50.793Z,18.30
2023-04-13T18:36:18.062Z,18.30
2023-04-13T18:38:45.511Z,18.40
2023-04-13T18:41:12.775Z,18.30
2023-04-13T18:43:39.759Z,18.30
2023-04-13T18:46:07.914Z,18.30
2023-04-13T18:48:35.341Z,18.30
2023-04-13T18:51:03.570Z,18.30
2023-04-13T18:53:30.822Z,18.20
2023-04-13T18:55:58.014Z,18.20
2023-04-13T18:58:24.764Z,18.20
2023-04-13T19:00:51.565Z,18.20
2023-04-13T19:03:18.443Z,18.20
2023-04-13T19:05:45.405Z,18.20
2023-04-13T19:08:13.558Z,18.20
2023-04-13T19:10:41.809Z,18.20
2023-04-13T19:13:08.569Z,18.20
2023-04-13T19:15:36.116Z,18.20
2023-04-13T19:18:04.408Z,18.20
2023-04-13T19:20:31.459Z,18.10
2023-04-13T19:22:58.263Z,18.20
2023-04-13T19:25:25.146Z,18.10
2023-04-13T19:27:51.900Z,18.10
2023-04-13T19:30:19.628Z,18.10
2023-04-13T19:32:47.668Z,18.10
2023-04-13T19:35:14.695Z,18.20
2023-04-13T19:37:41.956Z,18.20
2023-04-13T19:40:15.224Z,18.30
2023-04-13T19:42:42.909Z,18.40
2023-04-13T19:45:10.056Z,18.40
2023-04-13T19:47:37.833Z,18.40
2023-04-13T19:50:05.114Z,18.50
2023-04-13T19:52:31.983Z,18.50
2023-04-13T19:54:58.774Z,18.50
2023-04-13T19:57:25.750Z,18.50
2023-04-13T19:59:52.521Z,18.50
2023-04-13T20:02:19.796Z,18.60
2023-04-13T20:04:47.594Z,18.40
2023-04-13T20:07:14.468Z,18.40
2023-04-13T20:09:41.352Z,18.40
2023-04-13T20:12:08.965Z,18.30
2023-04-13T20:14:35.950Z,18.40
2023-04-13T20:17:03.195Z,18.30
2023-04-13T20:19:30.076Z,18.30
2023-04-13T20:21:57.793Z,18.30
2023-04-13T20:24:24.553Z,18.30
2023-04-13T20:26:51.555Z,18.30
2023-04-13T20:29:21.913Z,18.30
2023-04-13T20:31:48.898Z,18.30
2023-04-13T20:34:15.916Z,18.30
2023-04-13T20:36:42.679Z,18.30
2023-04-13T20:39:09.667Z,18.30
2023-04-13T20:41:36.924Z,18.20
2023-04-13T20:44:04.185Z,18.20
2023-04-13T20:46:35.165Z,18.20
2023-04-13T20:49:04.429Z,18.20
2023-04-13T20:51:33.507Z,18.20
2023-04-13T20:54:03.124Z,18.20
2023-04-13T20:56:30.097Z,18.20
2023-04-13T20:58:58.201Z,18.20
2023-04-13T21:01:30.297Z,18.20
2023-04-13T21:03:57.249Z,18.20
2023-04-13T21:06:24.094Z,18.20
2023-04-13T21:08:52.869Z,18.20
2023-04-13T21:11:19.664Z,18.20
2023-04-13T21:13:46.417Z,18.20
2023-04-13T21:16:13.684Z,18.20
2023-04-13T21:18:41.978Z,18.10
2023-04-13T21:21:08.894Z,18.20
2023-04-13T21:23:37.255Z,18.10
2023-04-13T21:26:04.795Z,18.10
2023-04-13T21:28:31.661Z,18.10
2023-04-13T21:30:58.543Z,18.10
2023-04-13T21:33:25.420Z,18.20
2023-04-13T21:35:52.189Z,18.20
2023-04-13T21:38:18.948Z,18.30
2023-04-13T21:40:45.703Z,18.30
2023-04-13T21:43:12.464Z,18.40
2023-04-13T21:45:39.274Z,18.40
2023-04-13T21:48:06.269Z,18.40
2023-04-13T21:50:32.990Z,18.40
2023-04-13T21:52:59.750Z,18.50
2023-04-13T21:55:26.629Z,18.50
2023-04-13T21:57:53.635Z,18.50
2023-04-13T22:00:20.519Z,18.40
2023-04-13T22:02:47.507Z,18.40
2023-04-13T22:05:16.896Z,18.40
2023-04-13T22:07:44.518Z,18.40
2023-04-13T22:10:11.529Z,18.40
2023-04-13T22:12:38.428Z,18.30
2023-04-13T22:15:05.640Z,18.20
2023-04-13T22:17:32.454Z,18.20
2023-04-13T22:19:59.295Z,18.20
2023-04-13T22:22:27.130Z,18.30
2023-04-13T22:24:54.005Z,18.20
2023-04-13T22:27:21.909Z,18.20
2023-04-13T22:29:48.780Z,18.20
2023-04-13T22:32:16.665Z,18.20
2023-04-13T22:34:43.573Z,18.20
2023-04-13T22:37:12.381Z,18.20
2023-04-13T22:39:39.612Z,18.20
2023-04-13T22:42:06.503Z,18.20
2023-04-13T22:44:34.231Z,18.20
2023-04-13T22:47:01.779Z,18.20
2023-04-13T22:49:29.652Z,18.20
2023-04-13T22:51:56.975Z,18.10
2023-04-13T22:54:24.140Z,18.20
2023-04-13T22:56:51.487Z,18.20
2023-04-13T22:59:18.621Z,18.10
2023-04-13T23:01:45.574Z,18.20
2023-04-13T23:04:15.712Z,18.20
2023-04-13T23:06:42.997Z,18.10
2023-04-13T23:09:09.757Z,18.20
2023-04-13T23:11:36.654Z,18.10
2023-04-13T23:14:03.404Z,18.10
2023-04-13T23:16:30.550Z,18.10
2023-04-13T23:18:57.549Z,18.10
2023-04-13T23:21:24.386Z,18.10
2023-04-13T23:23:51.392Z,18.10
2023-04-13T23:26:18.272Z,18.10
2023-04-13T23:28:46.164Z,18.10
2023-04-13T23:31:13.022Z,18.40
2023-04-13T23:33:40.152Z,18.20
2023-04-13T23:36:07.122Z,18.20
2023-04-13T23:38:34.112Z,18.30
2023-04-13T23:41:01.119Z,18.40
2023-04-13T23:43:28.130Z,18.40
2023-04-13T23:45:55.036Z,18.40
2023-04-13T23:48:22.368Z,18.40
2023-04-13T23:50:49.599Z,19.00
2023-04-13T23:53:19.996Z,18.50
2023-04-13T23:55:47.085Z,18.40
2023-04-13T23:58:13.861Z,18.40
